Time;durP1;ratioP1;P1;durP2;ratioP2;P2;SDS_P1;SDS_P2;PMS_P1;PMS_P2;Temp;Humidity;BMP_temperature;BMP_pressure;BME280_temperature;BME280_humidity;BME280_pressure;Samples;Min_cycle;Max_cycle;Signal;HPM_P1;HPM_P2
2021/06/09 00:01:33;;;;;;;58.33;38.67;;;17.80;99.90;;;;;;5052854;28;20021;-73
2021/06/09 00:03:58;;;;;;;55.90;39.08;;;17.80;99.90;;;;;;5069087;28;20390;-73
2021/06/09 00:06:24;;;;;;;61.08;38.58;;;17.80;99.90;;;;;;5052802;28;20389;-73
2021/06/09 00:08:49;;;;;;;58.45;39.42;;;17.80;99.90;;;;;;5053028;28;20017;-73
2021/06/09 00:11:15;;;;;;;64.57;41.72;;;17.80;99.90;;;;;;5053289;28;20438;-73
2021/06/09 00:13:41;;;;;;;50.70;36.70;;;17.80;99.90;;;;;;5069126;28;20029;-73
2021/06/09 00:16:11;;;;;;;56.08;38.28;;;17.80;99.90;;;;;;5069297;28;20429;-73
2021/06/09 00:18:37;;;;;;;58.95;39.70;;;17.90;99.90;;;;;;5069199;28;20025;-73
2021/06/09 00:21:03;;;;;;;56.40;41.75;;;17.90;99.90;;;;;;5069037;28;20493;-73
2021/06/09 00:23:30;;;;;;;60.25;41.88;;;17.80;99.90;;;;;;5054255;28;20033;-73
2021/06/09 00:26:00;;;;;;;62.63;40.30;;;17.90;99.90;;;;;;5052824;28;20036;-73
2021/06/09 00:28:25;;;;;;;57.35;38.25;;;17.80;99.90;;;;;;5086694;28;20425;-73
2021/06/09 00:30:51;;;;;;;58.42;39.13;;;17.80;99.90;;;;;;5052718;28;20032;-72
2021/06/09 00:33:17;;;;;;;60.40;38.15;;;17.80;99.90;;;;;;5069047;28;20389;-73
2021/06/09 00:35:43;;;;;;;57.15;37.47;;;17.70;99.90;;;;;;5053922;28;20029;-73
2021/06/09 00:38:09;;;;;;;60.60;40.45;;;17.80;99.90;;;;;;5053845;28;20024;-73
2021/06/09 00:40:35;;;;;;;59.08;39.35;;;17.70;99.90;;;;;;5053775;28;20044;-73
2021/06/09 00:43:12;;;;;;;58.42;38.88;;;17.70;99.90;;;;;;5069194;28;20033;-73
2021/06/09 00:45:43;;;;;;;59.47;39.25;;;17.80;99.90;;;;;;5052678;28;20025;-72
2021/06/09 00:48:09;;;;;;;59.17;38.25;;;17.80;99.90;;;;;;5069024;28;20021;-73
2021/06/09 00:50:36;;;;;;;64.60;39.13;;;17.80;99.90;;;;;;5053688;28;20374;-73
2021/06/09 00:53:34;;;;;;;56.63;38.55;;;17.80;99.90;;;;;;5051789;28;20057;-73
2021/06/09 00:55:48;;;;;;;56.28;36.97;;;17.80;99.90;;;;;;5053219;28;20025;-73
2021/06/09 00:58:13;;;;;;;59.33;40.55;;;17.80;99.90;;;;;;5068817;28;20028;-73
2021/06/09 01:00:40;;;;;;;66.20;42.22;;;17.80;99.90;;;;;;5053318;28;20017;-73
2021/06/09 01:03:06;;;;;;;59.80;40.70;;;17.80;99.90;;;;;;5052346;28;20051;-73
2021/06/09 01:05:32;;;;;;;62.88;41.25;;;17.80;99.90;;;;;;5053218;28;20385;-73
2021/06/09 01:08:02;;;;;;;62.10;42.35;;;17.80;99.90;;;;;;5053503;28;20025;-75
2021/06/09 01:10:28;;;;;;;63.08;42.63;;;17.80;99.90;;;;;;5053489;28;20025;-73
2021/06/09 01:12:56;;;;;;;59.30;43.35;;;17.80;99.90;;;;;;5053093;28;20497;-73
2021/06/09 01:15:22;;;;;;;62.47;41.08;;;17.80;99.90;;;;;;5071715;28;20124;-74
2021/06/09 01:17:47;;;;;;;59.22;40.05;;;17.80;99.90;;;;;;5056309;28;20057;-73
2021/06/09 01:20:13;;;;;;;57.33;39.50;;;17.70;99.90;;;;;;5057690;28;20506;-73
2021/06/09 01:22:39;;;;;;;61.15;41.75;;;17.70;99.90;;;;;;5057055;28;20047;-73
2021/06/09 01:25:07;;;;;;;63.50;42.22;;;17.70;99.90;;;;;;5057342;28;20037;-73
2021/06/09 01:27:33;;;;;;;56.08;40.65;;;17.70;99.90;;;;;;5089924;28;20074;-73
2021/06/09 01:29:59;;;;;;;56.97;39.53;;;17.70;99.90;;;;;;5057153;28;20029;-73
2021/06/09 01:32:25;;;;;;;60.05;40.17;;;17.70;99.90;;;;;;5056346;28;20021;-73
2021/06/09 01:34:51;;;;;;;62.47;41.40;;;17.60;99.90;;;;;;5055954;28;20032;-73
2021/06/09 01:37:19;;;;;;;63.70;42.05;;;17.60;99.90;;;;;;5057142;28;20017;-73
2021/06/09 01:39:45;;;;;;;59.60;40.60;;;17.60;99.90;;;;;;5072373;28;20099;-73
2021/06/09 01:42:11;;;;;;;62.88;41.50;;;17.50;99.90;;;;;;5072366;28;20044;-73
2021/06/09 01:44:39;;;;;;;62.47;42.83;;;17.50;99.90;;;;;;5089803;28;20031;-73
2021/06/09 01:47:05;;;;;;;63.83;43.88;;;17.50;99.90;;;;;;5056464;28;20021;-73
2021/06/09 01:49:31;;;;;;;65.70;42.67;;;17.60;99.90;;;;;;5073240;28;20381;-73
2021/06/09 01:51:57;;;;;;;62.45;41.88;;;17.60;99.90;;;;;;5055496;28;20021;-73
2021/06/09 01:54:23;;;;;;;56.58;40.15;;;17.60;99.90;;;;;;5056947;28;20029;-73
2021/06/09 01:56:50;;;;;;;62.78;43.67;;;17.50;99.90;;;;;;5055727;28;20096;-73
2021/06/09 01:59:19;;;;;;;60.88;43.78;;;17.50;99.90;;;;;;5055525;28;20020;-73
2021/06/09 02:01:47;;;;;;;63.05;43.50;;;17.50;99.90;;;;;;5055139;28;20029;-73
2021/06/09 02:04:13;;;;;;;63.90;43.13;;;17.50;99.90;;;;;;5072355;28;20515;-73
2021/06/09 02:06:40;;;;;;;61.80;41.17;;;17.50;99.90;;;;;;5071942;28;20447;-73
2021/06/09 02:09:07;;;;;;;69.90;43.40;;;17.40;99.90;;;;;;5056768;28;20079;-73
2021/06/09 02:11:32;;;;;;;61.75;42.53;;;17.40;99.90;;;;;;5055302;28;20458;-73
2021/06/09 02:13:59;;;;;;;66.78;43.55;;;17.40;99.90;;;;;;5088346;28;20086;-73
2021/06/09 02:16:32;;;;;;;64.82;43.88;;;17.40;99.90;;;;;;5055485;28;20021;-73
2021/06/09 02:18:57;;;;;;;63.40;42.75;;;17.30;99.90;;;;;;5055170;28;20087;-73
2021/06/09 02:21:23;;;;;;;64.20;42.47;;;17.30;99.90;;;;;;5055104;28;20060;-73
2021/06/09 02:23:49;;;;;;;66.43;43.20;;;17.20;99.90;;;;;;5054820;28;20025;-73
2021/06/09 02:26:14;;;;;;;64.45;43.20;;;17.20;99.90;;;;;;5056084;28;20036;-73
2021/06/09 02:28:42;;;;;;;65.45;42.88;;;17.20;99.90;;;;;;5055316;28;20397;-73
2021/06/09 02:31:08;;;;;;;65.32;41.78;;;17.20;99.90;;;;;;5071630;28;20029;-73
2021/06/09 02:33:35;;;;;;;62.15;42.63;;;17.20;99.90;;;;;;5055690;28;20036;-73
2021/06/09 02:36:00;;;;;;;62.53;43.42;;;17.10;99.90;;;;;;5054492;28;20118;-73
2021/06/09 02:38:40;;;;;;;64.45;43.15;;;17.10;99.90;;;;;;5055720;28;20028;-73
2021/06/09 02:41:06;;;;;;;62.45;43.20;;;17.10;99.90;;;;;;5071145;28;20017;-73
2021/06/09 02:43:32;;;;;;;66.07;42.88;;;17.10;99.90;;;;;;5087893;28;20033;-73
2021/06/09 02:46:08;;;;;;;62.80;42.13;;;17.10;99.90;;;;;;5071061;28;20052;-73
2021/06/09 02:48:35;;;;;;;68.72;45.08;;;17.10;99.90;;;;;;5070920;28;20025;-73
2021/06/09 02:51:02;;;;;;;73.15;46.85;;;17.10;99.90;;;;;;5055748;28;20131;-73
2021/06/09 02:53:33;;;;;;;71.35;45.38;;;17.00;99.90;;;;;;5070556;28;20049;-73
2021/06/09 02:56:25;;;;;;;75.97;48.90;;;17.00;99.90;;;;;;5054787;28;20025;-73
2021/06/09 02:59:31;;;;;;;77.28;47.90;;;16.90;99.90;;;;;;5055191;28;20025;-73
2021/06/09 03:02:08;;;;;;;76.40;49.17;;;16.90;99.90;;;;;;5055054;28;20053;-72
2021/06/09 03:04:55;;;;;;;78.80;49.70;;;16.70;99.90;;;;;;5071481;28;20048;-73
2021/06/09 03:07:31;;;;;;;91.88;56.08;;;16.60;99.90;;;;;;5054196;28;20072;-73
2021/06/09 03:10:24;;;;;;;79.47;50.63;;;16.60;99.90;;;;;;5053817;28;20497;-73
2021/06/09 03:13:12;;;;;;;79.78;49.72;;;16.50;99.90;;;;;;5070890;28;20398;-73
2021/06/09 03:15:50;;;;;;;88.97;54.53;;;16.50;99.90;;;;;;5087121;28;20478;-73
2021/06/09 03:18:20;;;;;;;92.90;56.42;;;16.50;99.90;;;;;;5055446;28;20052;-73
2021/06/09 03:21:04;;;;;;;91.35;55.92;;;16.40;99.90;;;;;;5070316;28;20021;-72
2021/06/09 03:23:53;;;;;;;93.72;54.95;;;16.40;99.90;;;;;;5053968;28;20102;-73
2021/06/09 03:26:36;;;;;;;95.97;56.83;;;16.30;99.90;;;;;;5086844;28;20075;-73
2021/06/09 03:29:11;;;;;;;91.65;57.30;;;16.30;99.90;;;;;;5053491;28;20032;-73
2021/06/09 03:31:42;;;;;;;89.82;57.45;;;16.20;99.90;;;;;;5053806;28;20102;-73
2021/06/09 03:34:16;;;;;;;94.25;57.97;;;16.20;99.90;;;;;;5053390;28;20028;-73
2021/06/09 03:36:43;;;;;;;99.78;62.58;;;16.20;99.90;;;;;;5070694;28;20057;-73
2021/06/09 03:39:12;;;;;;;94.95;59.70;;;16.20;99.90;;;;;;5053821;28;20485;-72
2021/06/09 03:41:43;;;;;;;102.35;60.08;;;16.30;99.90;;;;;;5053888;28;20056;-73
2021/06/09 03:44:10;;;;;;;95.38;60.05;;;16.30;99.90;;;;;;5053225;28;20382;-72
2021/06/09 03:46:38;;;;;;;95.45;59.15;;;16.40;99.90;;;;;;5053505;28;20029;-73
2021/06/09 03:49:10;;;;;;;91.45;56.67;;;16.40;99.90;;;;;;5070000;28;20025;-73
2021/06/09 03:51:39;;;;;;;88.93;57.10;;;16.50;99.90;;;;;;5054843;28;20017;-72
2021/06/09 03:54:06;;;;;;;83.70;54.50;;;16.60;99.90;;;;;;5054065;28;20486;-73
2021/06/09 03:56:33;;;;;;;79.97;52.90;;;16.60;99.90;;;;;;5054142;28;20393;-73
2021/06/09 03:59:00;;;;;;;78.93;50.72;;;16.70;99.90;;;;;;5052995;28;20155;-73
2021/06/09 04:01:32;;;;;;;79.82;52.45;;;16.80;99.90;;;;;;5069662;28;20021;-73
2021/06/09 04:04:00;;;;;;;77.40;50.50;;;16.90;99.90;;;;;;5053226;28;20029;-73
2021/06/09 04:06:26;;;;;;;75.75;51.33;;;16.90;99.90;;;;;;5053364;28;20021;-73
2021/06/09 04:08:54;;;;;;;85.28;51.50;;;17.00;99.90;;;;;;5053552;28;20429;-72
2021/06/09 04:11:21;;;;;;;79.35;51.05;;;17.10;99.90;;;;;;5086522;28;20025;-72
2021/06/09 04:13:47;;;;;;;76.35;51.00;;;17.10;99.90;;;;;;5054215;28;20435;-73
2021/06/09 04:16:15;;;;;;;80.85;51.40;;;17.10;99.90;;;;;;5054280;28;20022;-73
2021/06/09 04:18:44;;;;;;;76.07;49.38;;;17.20;99.90;;;;;;5069417;28;20024;-73
2021/06/09 04:21:11;;;;;;;75.45;49.55;;;17.30;99.90;;;;;;5086234;28;20025;-73
2021/06/09 04:23:37;;;;;;;76.15;50.55;;;17.40;99.90;;;;;;5069789;28;20025;-72
2021/06/09 04:26:06;;;;;;;74.63;49.17;;;17.30;99.90;;;;;;5069181;28;20033;-73
2021/06/09 04:28:33;;;;;;;78.05;51.65;;;17.40;99.90;;;;;;5086903;28;20036;-73
2021/06/09 04:30:59;;;;;;;78.50;52.30;;;17.40;99.90;;;;;;5053928;28;20052;-72
2021/06/09 04:33:29;;;;;;;82.85;54.35;;;17.40;99.90;;;;;;5053855;28;20078;-73
2021/06/09 04:35:56;;;;;;;94.32;60.63;;;17.40;99.90;;;;;;5069638;28;20440;-73
2021/06/09 04:38:21;;;;;;;95.82;63.58;;;17.50;99.90;;;;;;5052608;28;20025;-73
2021/06/09 04:40:51;;;;;;;102.72;63.83;;;17.50;99.90;;;;;;5069514;28;20028;-73
2021/06/09 04:43:17;;;;;;;98.82;62.63;;;17.50;99.90;;;;;;5053726;28;20039;-73
2021/06/09 04:45:43;;;;;;;96.60;61.15;;;17.50;99.90;;;;;;5086048;28;20466;-73
2021/06/09 04:48:11;;;;;;;85.90;55.85;;;17.60;99.90;;;;;;5053241;28;20025;-73
2021/06/09 04:50:37;;;;;;;76.43;53.38;;;18.00;99.90;;;;;;5052475;28;20450;-72
2021/06/09 04:53:18;;;;;;;79.10;52.72;;;18.30;99.90;;;;;;5053223;28;20053;-73
2021/06/09 04:55:47;;;;;;;88.72;55.58;;;18.70;99.90;;;;;;5037511;28;20022;-73
2021/06/09 04:58:15;;;;;;;75.72;53.20;;;18.90;99.90;;;;;;5053837;28;20438;-73
2021/06/09 05:00:43;;;;;;;76.50;52.60;;;19.20;99.90;;;;;;5053531;28;20013;-74
2021/06/09 05:03:08;;;;;;;72.15;51.28;;;19.40;99.90;;;;;;5085502;28;20056;-73
2021/06/09 05:05:34;;;;;;;75.63;52.78;;;19.70;99.90;;;;;;5052124;28;20060;-73
2021/06/09 05:08:00;;;;;;;73.35;51.55;;;20.00;99.90;;;;;;5035473;28;20028;-72
2021/06/09 05:10:26;;;;;;;67.75;48.70;;;20.20;99.90;;;;;;5068565;28;20032;-73
2021/06/09 05:13:06;;;;;;;73.45;50.90;;;20.30;99.90;;;;;;5068438;28;20029;-74
2021/06/09 05:15:37;;;;;;;70.88;49.97;;;19.90;99.90;;;;;;5069062;28;20017;-73
2021/06/09 05:18:09;;;;;;;73.05;49.08;;;19.50;99.90;;;;;;5052555;28;20029;-73
2021/06/09 05:20:38;;;;;;;65.72;47.13;;;19.80;99.90;;;;;;5068981;28;20435;-73
2021/06/09 05:23:28;;;;;;;64.85;46.05;;;20.20;99.90;;;;;;5052581;28;20049;-73
2021/06/09 05:25:55;;;;;;;62.33;46.78;;;20.20;99.90;;;;;;5085211;28;20379;-73
2021/06/09 05:28:24;;;;;;;65.93;48.45;;;19.90;99.90;;;;;;5085331;28;20056;-73
2021/06/09 05:30:53;;;;;;;67.03;46.90;;;19.90;99.90;;;;;;5052969;28;20509;-74
2021/06/09 05:33:21;;;;;;;65.63;46.38;;;20.20;99.90;;;;;;5052287;28;20032;-73
2021/06/09 05:35:47;;;;;;;68.85;46.13;;;20.90;99.90;;;;;;5052091;28;20024;-74
2021/06/09 05:38:13;;;;;;;66.78;47.25;;;21.60;99.90;;;;;;5052024;28;20099;-73
2021/06/09 05:40:39;;;;;;;68.28;48.35;;;22.00;99.90;;;;;;5051618;28;20021;-74
2021/06/09 05:43:05;;;;;;;64.65;45.15;;;22.30;99.90;;;;;;5052193;28;20036;-73
2021/06/09 05:45:33;;;;;;;64.07;45.75;;;22.50;99.90;;;;;;5052759;28;20036;-74
2021/06/09 05:48:00;;;;;;;66.30;46.20;;;22.60;99.90;;;;;;5051862;28;20021;-73
2021/06/09 05:50:29;;;;;;;67.35;45.13;;;22.70;99.90;;;;;;5052766;28;20029;-74
2021/06/09 05:52:58;;;;;;;62.65;43.50;;;23.00;99.90;;;;;;5051292;28;20033;-74
2021/06/09 05:55:26;;;;;;;55.33;43.90;;;22.80;99.90;;;;;;5085165;28;20032;-74
2021/06/09 05:57:54;;;;;;;65.55;44.33;;;23.00;99.90;;;;;;5052117;28;20025;-73
2021/06/09 06:00:24;;;;;;;61.30;43.47;;;23.10;99.90;;;;;;5053534;28;20019;-73
2021/06/09 06:02:51;;;;;;;57.67;43.97;;;23.30;99.90;;;;;;5089004;28;20382;-74
2021/06/09 06:05:18;;;;;;;59.63;44.40;;;22.90;99.90;;;;;;5057006;28;20020;-73
2021/06/09 06:07:44;;;;;;;72.53;45.55;;;22.40;99.90;;;;;;5040091;28;20132;-72
2021/06/09 06:10:11;;;;;;;60.53;46.72;;;22.00;99.90;;;;;;5056805;28;20514;-73
2021/06/09 06:12:38;;;;;;;68.00;45.40;;;22.10;99.90;;;;;;5055571;28;20142;-73
2021/06/09 06:15:05;;;;;;;61.47;45.80;;;22.50;99.90;;;;;;5055550;28;20419;-73
2021/06/09 06:17:31;;;;;;;59.70;45.38;;;22.50;99.90;;;;;;5055275;28;20147;-73
2021/06/09 06:19:57;;;;;;;62.58;44.90;;;23.00;99.90;;;;;;5056353;28;20099;-73
2021/06/09 06:22:23;;;;;;;57.85;44.97;;;23.30;99.90;;;;;;5056348;28;20021;-73
2021/06/09 06:24:50;;;;;;;58.30;46.67;;;23.90;99.90;;;;;;5088332;28;20032;-73
2021/06/09 06:27:19;;;;;;;62.08;47.15;;;24.10;99.90;;;;;;5056121;28;20161;-74
2021/06/09 06:29:46;;;;;;;64.00;48.72;;;24.40;99.90;;;;;;5056156;28;20053;-73
2021/06/09 06:32:15;;;;;;;56.65;44.65;;;24.70;99.90;;;;;;5054829;28;20413;-73
2021/06/09 06:34:46;;;;;;;62.97;47.70;;;24.80;99.90;;;;;;5058512;28;20051;-75
2021/06/09 06:37:13;;;;;;;63.67;47.50;;;24.90;99.90;;;;;;5072088;28;20016;-72
2021/06/09 06:39:40;;;;;;;60.40;46.70;;;25.50;99.90;;;;;;5088135;28;20411;-72
2021/06/09 06:42:07;;;;;;;64.00;47.78;;;25.00;99.90;;;;;;5056000;28;20025;-72
2021/06/09 06:44:34;;;;;;;63.17;48.78;;;25.30;99.90;;;;;;5055505;28;20017;-72
2021/06/09 06:47:01;;;;;;;54.15;41.22;;;25.20;99.90;;;;;;5055644;28;20517;-73
2021/06/09 06:49:28;;;;;;;53.33;42.08;;;25.30;99.90;;;;;;5055439;28;20025;-72
2021/06/09 06:51:55;;;;;;;50.58;41.53;;;25.60;99.90;;;;;;5054304;28;20045;-72
2021/06/09 06:54:21;;;;;;;56.58;42.88;;;26.50;99.90;;;;;;5070620;28;20025;-72
2021/06/09 06:56:49;;;;;;;54.47;43.35;;;26.30;99.90;;;;;;5040505;28;20025;-75
2021/06/09 06:59:16;;;;;;;53.72;42.13;;;26.20;99.90;;;;;;5066923;28;20041;-72
2021/06/09 07:01:42;;;;;;;51.33;40.67;;;25.90;99.90;;;;;;5068117;28;20025;-72
2021/06/09 07:04:08;;;;;;;53.58;40.33;;;26.30;99.90;;;;;;5053789;28;20028;-73
2021/06/09 07:06:35;;;;;;;53.78;40.28;;;26.10;99.90;;;;;;5055160;28;20033;-72
2021/06/09 07:09:02;;;;;;;50.53;42.72;;;26.60;99.90;;;;;;5086949;28;20057;-72
2021/06/09 07:11:28;;;;;;;50.50;41.83;;;26.50;99.90;;;;;;5053761;28;20032;-72
2021/06/09 07:13:57;;;;;;;50.42;39.25;;;26.50;99.90;;;;;;5054195;28;20113;-72
2021/06/09 07:16:32;;;;;;;47.92;40.13;;;26.40;99.90;;;;;;5053753;28;20390;-74
2021/06/09 07:18:58;;;;;;;49.53;40.28;;;26.30;99.90;;;;;;5054876;28;20021;-74
2021/06/09 07:21:24;;;;;;;51.90;41.00;;;26.40;99.90;;;;;;5070175;28;20021;-74
2021/06/09 07:23:56;;;;;;;48.63;39.78;;;27.00;99.90;;;;;;5055715;28;20024;-73
2021/06/09 07:26:40;;;;;;;47.27;38.43;;;27.00;99.90;;;;;;5055572;28;20556;-75
2021/06/09 07:29:17;;;;;;;45.83;38.83;;;27.20;99.90;;;;;;5053644;28;20021;-77
2021/06/09 07:31:55;;;;;;;47.05;37.63;;;27.50;99.90;;;;;;5055646;28;20025;-73
2021/06/09 07:34:21;;;;;;;45.67;38.85;;;26.90;99.90;;;;;;5053073;28;20029;-73
2021/06/09 07:36:55;;;;;;;46.25;40.58;;;27.20;99.90;;;;;;5086774;28;20486;-73
2021/06/09 07:39:31;;;;;;;46.17;37.75;;;26.50;99.90;;;;;;5053891;28;20049;-73
2021/06/09 07:42:00;;;;;;;48.92;36.05;;;26.50;99.90;;;;;;5052943;28;20079;-73
2021/06/09 07:44:28;;;;;;;43.83;33.45;;;27.10;99.90;;;;;;5054224;28;20087;-73
2021/06/09 07:46:55;;;;;;;38.00;33.88;;;27.50;99.90;;;;;;5054386;28;20078;-73
2021/06/09 07:49:22;;;;;;;36.60;32.60;;;27.70;99.90;;;;;;5054241;28;20104;-73
2021/06/09 07:51:49;;;;;;;37.92;31.05;;;28.20;99.90;;;;;;5085931;28;20078;-72
2021/06/09 07:54:15;;;;;;;32.15;27.30;;;27.50;99.90;;;;;;5069154;28;20037;-72
2021/06/09 07:56:44;;;;;;;34.67;30.35;;;28.20;99.90;;;;;;5054540;28;20059;-77
2021/06/09 07:59:13;;;;;;;32.10;28.60;;;27.80;99.90;;;;;;5055216;28;20065;-73
2021/06/09 08:01:42;;;;;;;36.42;32.45;;;27.80;99.90;;;;;;5054574;28;20025;-73
2021/06/09 08:04:10;;;;;;;35.70;31.23;;;28.10;99.90;;;;;;5053596;28;20524;-73
2021/06/09 08:06:36;;;;;;;33.95;29.95;;;28.20;99.90;;;;;;5052335;28;20086;-72
2021/06/09 08:09:04;;;;;;;35.58;31.55;;;28.20;99.90;;;;;;5053778;28;20029;-73
2021/06/09 08:11:31;;;;;;;37.55;31.88;;;28.00;99.90;;;;;;5054089;28;20051;-73
2021/06/09 08:13:57;;;;;;;36.20;30.58;;;28.00;99.90;;;;;;5053536;28;20025;-73
2021/06/09 08:16:23;;;;;;;36.58;32.65;;;28.40;99.90;;;;;;5051532;28;20017;-73
2021/06/09 08:18:50;;;;;;;40.25;31.80;;;29.00;99.90;;;;;;5035612;28;20066;-73
2021/06/09 08:21:20;;;;;;;40.95;32.90;;;29.00;99.90;;;;;;5054277;28;20028;-74
2021/06/09 08:23:48;;;;;;;35.88;32.08;;;28.60;99.90;;;;;;5052137;28;20036;-76
2021/06/09 08:26:16;;;;;;;35.85;31.90;;;28.90;99.90;;;;;;5054610;28;20025;-73
2021/06/09 08:28:43;;;;;;;32.50;28.17;;;28.80;99.90;;;;;;5055982;28;20032;-74
2021/06/09 08:31:12;;;;;;;33.58;29.60;;;28.60;99.90;;;;;;5085578;28;20021;-73
2021/06/09 08:33:39;;;;;;;34.80;28.92;;;27.70;99.90;;;;;;5068110;28;20029;-73
2021/06/09 08:36:06;;;;;;;35.83;30.77;;;27.80;99.90;;;;;;5068305;28;20021;-73
2021/06/09 08:38:33;;;;;;;38.03;30.70;;;27.50;99.90;;;;;;5051249;28;20029;-73
2021/06/09 08:40:59;;;;;;;36.45;30.33;;;27.00;99.90;;;;;;5052406;28;20497;-72
2021/06/09 08:43:25;;;;;;;35.58;30.35;;;26.20;99.90;;;;;;5052958;28;20055;-72
2021/06/09 08:45:51;;;;;;;36.28;31.80;;;26.10;99.90;;;;;;5051160;28;20032;-72
2021/06/09 08:48:18;;;;;;;34.80;29.77;;;26.40;99.90;;;;;;5051941;28;20052;-74
2021/06/09 08:50:48;;;;;;;31.17;27.50;;;26.50;99.90;;;;;;5053084;28;20420;-72
2021/06/09 08:53:19;;;;;;;32.10;27.92;;;27.30;99.90;;;;;;5051603;28;20078;-72
2021/06/09 08:55:53;;;;;;;31.55;28.20;;;28.00;99.90;;;;;;5069250;28;20021;-72
2021/06/09 08:58:18;;;;;;;34.90;29.15;;;28.10;99.90;;;;;;5086166;28;20029;-72
2021/06/09 09:00:45;;;;;;;33.60;30.00;;;28.80;99.90;;;;;;5057461;28;20025;-73
2021/06/09 09:03:11;;;;;;;35.58;30.40;;;29.60;99.90;;;;;;5051516;28;20025;-73
2021/06/09 09:05:37;;;;;;;29.98;26.60;;;29.40;99.90;;;;;;5052159;28;20033;-74
2021/06/09 09:08:05;;;;;;;28.45;25.55;;;28.30;99.90;;;;;;5052545;28;20040;-74
2021/06/09 09:10:32;;;;;;;26.50;23.80;;;28.20;99.90;;;;;;5052091;28;20025;-74
2021/06/09 09:12:58;;;;;;;29.20;26.15;;;29.00;99.90;;;;;;5076477;28;20500;-74
2021/06/09 09:15:24;;;;;;;29.48;26.45;;;28.20;99.90;;;;;;5049932;28;20029;-73
2021/06/09 09:17:56;;;;;;;28.55;25.55;;;28.30;99.90;;;;;;5051609;28;20413;-74
2021/06/09 09:20:27;;;;;;;30.73;25.70;;;27.80;99.90;;;;;;5052533;28;20017;-74
2021/06/09 09:22:57;;;;;;;30.60;27.30;;;27.20;99.90;;;;;;5052476;28;20390;-74
2021/06/09 09:25:25;;;;;;;28.83;24.88;;;27.30;99.90;;;;;;5052910;28;20104;-74
2021/06/09 09:28:02;;;;;;;28.45;24.85;;;26.90;99.90;;;;;;5053435;28;20104;-73
2021/06/09 09:30:30;;;;;;;26.13;23.42;;;26.80;99.90;;;;;;5052498;28;20020;-74
2021/06/09 09:32:59;;;;;;;27.40;24.23;;;26.60;99.90;;;;;;5052595;28;20028;-73
2021/06/09 09:35:28;;;;;;;26.00;22.33;;;27.00;99.90;;;;;;5053292;28;20075;-74
2021/06/09 09:38:17;;;;;;;24.77;22.27;;;28.50;99.90;;;;;;5055181;28;20354;-74
2021/06/09 09:41:05;;;;;;;25.92;23.23;;;29.60;99.90;;;;;;5056242;28;20059;-73
2021/06/09 09:43:54;;;;;;;26.90;24.30;;;29.70;99.90;;;;;;5055597;28;20024;-71
2021/06/09 09:49:13;;;;;;;26.03;23.63;;;29.10;99.90;;;;;;5125735;27;20478;-73
2021/06/09 09:51:59;;;;;;;26.00;23.30;;;28.00;99.90;;;;;;5111042;28;20381;-73
2021/06/09 09:54:27;;;;;;;25.48;22.88;;;27.70;99.90;;;;;;5110506;28;20020;-73
2021/06/09 09:56:54;;;;;;;24.45;21.95;;;29.30;99.90;;;;;;5110587;28;20016;-72
2021/06/09 09:59:25;;;;;;;24.92;22.33;;;29.10;99.90;;;;;;5110767;28;20024;-73
2021/06/09 10:01:53;;;;;;;25.38;22.83;;;28.50;99.90;;;;;;5110099;28;20031;-73
2021/06/09 10:04:23;;;;;;;22.05;19.83;;;28.80;99.90;;;;;;5109342;28;20035;-73
2021/06/09 10:06:51;;;;;;;23.33;20.58;;;29.80;99.90;;;;;;5109948;28;20114;-73
2021/06/09 10:09:21;;;;;;;25.52;22.88;;;30.60;99.90;;;;;;5110212;28;20483;-72
2021/06/09 10:11:56;;;;;;;21.52;19.52;;;30.90;99.90;;;;;;5109788;28;20120;-73
2021/06/09 10:14:27;;;;;;;24.58;21.88;;;30.90;99.90;;;;;;5108192;28;20008;-73
2021/06/09 10:17:14;;;;;;;21.85;19.63;;;30.90;99.70;;;;;;5109784;28;20024;-73
2021/06/09 10:19:47;;;;;;;24.20;21.90;;;31.30;99.30;;;;;;5104465;28;20425;-73
2021/06/09 10:22:18;;;;;;;24.30;22.00;;;31.80;97.20;;;;;;5109674;28;20028;-73
2021/06/09 10:24:52;;;;;;;20.05;18.00;;;31.30;97.70;;;;;;5109606;28;20484;-73
2021/06/09 10:27:32;;;;;;;24.45;21.95;;;31.20;99.90;;;;;;5109808;28;20390;-72
2021/06/09 10:29:57;;;;;;;21.65;19.33;;;29.40;99.70;;;;;;5108233;28;20020;-73
2021/06/09 10:32:23;;;;;;;23.65;21.02;;;28.70;99.90;;;;;;5109545;28;20024;-72
2021/06/09 10:34:49;;;;;;;25.60;23.05;;;28.50;99.90;;;;;;5109811;28;20469;-72
2021/06/09 10:37:15;;;;;;;23.05;20.77;;;28.10;99.90;;;;;;5109724;28;20032;-72
2021/06/09 10:39:43;;;;;;;26.20;23.52;;;28.70;99.90;;;;;;5108444;28;20053;-73
2021/06/09 10:42:12;;;;;;;27.45;24.52;;;28.50;99.90;;;;;;5109676;28;20035;-73
2021/06/09 10:44:44;;;;;;;25.65;23.05;;;28.80;99.90;;;;;;5109705;28;20484;-73
2021/06/09 10:47:17;;;;;;;26.40;23.60;;;29.50;99.90;;;;;;5109346;28;20044;-73
2021/06/09 10:49:43;;;;;;;24.70;22.17;;;29.80;99.90;;;;;;5110303;28;20089;-72
2021/06/09 10:52:09;;;;;;;25.70;23.10;;;29.80;99.90;;;;;;5108216;28;20456;-72
2021/06/09 10:54:35;;;;;;;26.58;23.75;;;29.80;99.90;;;;;;5108581;28;20182;-72
2021/06/09 10:57:01;;;;;;;24.60;22.20;;;28.70;99.90;;;;;;5108935;28;20206;-73
2021/06/09 10:59:31;;;;;;;28.15;25.33;;;28.10;99.90;;;;;;5082884;28;20053;-73
2021/06/09 11:02:01;;;;;;;26.10;23.55;;;28.00;99.90;;;;;;5095745;28;20065;-72
2021/06/09 11:04:32;;;;;;;26.17;23.48;;;28.10;99.90;;;;;;5094814;28;20027;-73
2021/06/09 11:06:57;;;;;;;25.65;23.05;;;28.20;99.90;;;;;;5095911;28;20024;-72
2021/06/09 11:09:26;;;;;;;23.60;21.13;;;28.40;99.90;;;;;;5095467;28;20469;-73
2021/06/09 11:12:15;;;;;;;22.90;20.60;;;28.70;99.90;;;;;;5077922;28;20385;-73
2021/06/09 11:14:48;;;;;;;22.58;20.17;;;28.60;99.90;;;;;;5095393;28;20016;-72
2021/06/09 11:17:14;;;;;;;24.45;21.95;;;28.80;99.90;;;;;;5077651;28;20026;-73
2021/06/09 11:19:44;;;;;;;25.55;22.40;;;28.90;99.90;;;;;;5096172;28;20020;-73
2021/06/09 11:22:24;;;;;;;24.67;22.17;;;28.80;99.90;;;;;;5095364;28;20031;-73
2021/06/09 11:25:11;;;;;;;20.30;18.23;;;27.80;99.90;;;;;;5095345;28;20431;-73
2021/06/09 11:27:38;;;;;;;18.65;16.75;;;27.80;99.90;;;;;;5095736;28;20466;-73
2021/06/09 11:30:27;;;;;;;18.58;16.50;;;28.00;99.90;;;;;;5095229;28;20031;-72
2021/06/09 11:32:56;;;;;;;18.73;16.95;;;27.70;99.90;;;;;;5095450;28;20437;-72
2021/06/09 11:35:45;;;;;;;21.02;18.77;;;27.50;99.90;;;;;;5093494;28;20473;-73
2021/06/09 11:41:07;;;;;;;24.48;21.95;;;27.50;99.90;;;;;;5127016;27;20140;-71
2021/06/09 11:43:41;;;;;;;23.23;20.83;;;26.90;99.90;;;;;;5110996;28;20456;-72
2021/06/09 11:46:19;;;;;;;23.13;20.38;;;27.20;99.90;;;;;;5110600;28;20034;-72
2021/06/09 11:49:07;;;;;;;22.60;20.30;;;27.10;99.90;;;;;;5110614;28;20024;-72
2021/06/09 11:51:37;;;;;;;22.00;19.80;;;27.60;99.90;;;;;;5126395;28;20024;-72
2021/06/09 11:54:16;;;;;;;20.48;18.13;;;28.10;99.90;;;;;;5109263;28;20094;-72
2021/06/09 11:56:48;;;;;;;21.88;19.77;;;28.20;99.90;;;;;;5109178;28;20385;-72
2021/06/09 12:02:03;;;;;;;22.65;20.42;;;28.90;99.90;;;;;;5144603;27;20166;-72
2021/06/09 12:04:30;;;;;;;18.52;16.85;;;29.00;99.90;;;;;;5110436;28;20047;-72
2021/06/09 12:07:01;;;;;;;17.65;15.85;;;28.90;99.90;;;;;;5108972;28;20114;-72
2021/06/09 12:09:31;;;;;;;17.63;15.65;;;29.10;99.90;;;;;;5110833;28;20019;-72
2021/06/09 12:11:59;;;;;;;18.02;16.23;;;29.00;99.90;;;;;;5110401;28;20020;-72
2021/06/09 12:14:28;;;;;;;17.88;16.08;;;28.50;99.90;;;;;;5110616;28;20023;-72
2021/06/09 12:17:12;;;;;;;14.50;13.00;;;28.70;99.90;;;;;;5109375;28;20051;-72
2021/06/09 12:19:41;;;;;;;13.27;11.88;;;28.80;99.90;;;;;;5109588;28;20027;-72
2021/06/09 12:22:11;;;;;;;11.82;10.43;;;29.10;99.90;;;;;;5110619;28;20020;-72
2021/06/09 12:24:38;;;;;;;15.95;12.45;;;29.20;99.90;;;;;;5109039;28;20102;-72
2021/06/09 12:27:10;;;;;;;15.27;13.77;;;29.10;99.90;;;;;;5109240;28;20028;-72
2021/06/09 12:29:39;;;;;;;13.18;11.95;;;29.00;99.90;;;;;;5109381;28;20043;-72
2021/06/09 12:32:27;;;;;;;14.35;12.52;;;28.90;99.90;;;;;;5110291;28;20508;-72
2021/06/09 12:35:07;;;;;;;15.00;13.45;;;28.90;99.90;;;;;;5109947;28;20075;-72
2021/06/09 12:37:36;;;;;;;15.50;13.80;;;28.40;99.90;;;;;;5108403;28;20445;-72
2021/06/09 12:45:32;;;;;;;11.57;10.45;;;28.30;99.90;;;;;;5066523;28;20193;-72
2021/06/09 12:48:17;;;;;;;12.93;11.65;;;28.20;99.90;;;;;;5050037;28;20033;-72
2021/06/09 12:50:53;;;;;;;13.45;12.13;;;27.80;99.90;;;;;;5050106;28;20056;-72
2021/06/09 12:53:22;;;;;;;14.75;11.73;;;27.70;99.90;;;;;;5049387;28;20442;-72